Time;durP1;ratioP1;P1;durP2;ratioP2;P2;SDS_P1;SDS_P2;PMS_P1;PMS_P2;Temp;Humidity;BMP_temperature;BMP_pressure;BME280_temperature;BME280_humidity;BME280_pressure;Samples;Min_cycle;Max_cycle;Signal;HPM_P1;HPM_P2
2023/02/06 00:00:47;;;;;;;2.45;0.85;;;;;;;;;;5088673;28;20623;-67
2023/02/06 00:03:16;;;;;;;;;;;;;;;;;;5091948;28;20442;-66
2023/02/06 00:06:00;;;;;;;8.23;0.73;;;;;;;;;;5089716;28;20399;-67
2023/02/06 00:08:30;;;;;;;1.52;0.50;;;;;;;;;;5041309;28;20055;-67
2023/02/06 00:11:06;;;;;;;5.13;0.73;;;;;;;;;;5091492;28;20557;-67
2023/02/06 00:13:37;;;;;;;3.17;0.50;;;;;;;;;;4993144;28;20048;-67
2023/02/06 00:16:16;;;;;;;4.88;0.50;;;;;;;;;;5041092;28;20071;-66
2023/02/06 00:18:46;;;;;;;1.48;0.57;;;;;;;;;;5040601;28;20051;-66
2023/02/06 00:21:20;;;;;;;3.33;0.82;;;;;;;;;;5091337;28;20155;-67
2023/02/06 00:23:53;;;;;;;4.25;0.52;;;;;;;;;;5049329;28;20057;-67
2023/02/06 00:26:24;;;;;;;2.53;0.85;;;;;;;;;;5031698;28;20064;-67
2023/02/06 00:28:54;;;;;;;5.40;0.40;;;;;;;;;;5030803;28;20112;-66
2023/02/06 00:31:25;;;;;;;0.95;0.43;;;;;;;;;;4991387;28;20054;-67
2023/02/06 00:33:55;;;;;;;2.67;0.70;;;;;;;;;;4950257;28;20446;-67
2023/02/06 00:36:26;;;;;;;2.78;0.80;;;;;;;;;;4917242;29;20064;-66
2023/02/06 00:38:57;;;;;;;3.22;0.70;;;;;;;;;;4932872;29;20062;-66
2023/02/06 00:41:27;;;;;;;5.00;1.25;;;;;;;;;;4917754;29;20056;-67
2023/02/06 00:43:57;;;;;;;5.40;1.25;;;;;;;;;;4886735;29;20520;-67
2023/02/06 00:46:27;;;;;;;5.05;0.68;;;;;;;;;;4933558;29;20167;-66
2023/02/06 00:48:57;;;;;;;0.82;0.47;;;;;;;;;;4932859;29;20058;-67
2023/02/06 00:51:29;;;;;;;4.03;0.70;;;;;;;;;;4876148;29;20079;-67
2023/02/06 00:53:59;;;;;;;7.25;0.80;;;;;;;;;;4876524;29;20060;-66
2023/02/06 00:56:29;;;;;;;3.75;0.77;;;;;;;;;;4852531;29;20439;-67
2023/02/06 00:58:59;;;;;;;2.47;0.73;;;;;;;;;;4857892;29;20069;-67
2023/02/06 01:01:29;;;;;;;2.85;0.80;;;;;;;;;;4875933;29;20045;-66
2023/02/06 01:03:59;;;;;;;2.25;0.93;;;;;;;;;;4895169;29;20053;-67
2023/02/06 01:06:30;;;;;;;2.92;0.70;;;;;;;;;;4878747;29;20536;-66
2023/02/06 01:09:00;;;;;;;8.07;0.93;;;;;;;;;;4903773;29;20417;-67
2023/02/06 01:11:30;;;;;;;1.85;0.77;;;;;;;;;;4908170;29;20047;-66
2023/02/06 01:14:01;;;;;;;4.78;0.95;;;;;;;;;;4922468;29;20052;-66
2023/02/06 01:16:31;;;;;;;3.17;0.93;;;;;;;;;;4930322;29;20063;-67
2023/02/06 01:19:01;;;;;;;3.75;0.73;;;;;;;;;;4913343;29;20055;-66
2023/02/06 01:21:33;;;;;;;3.75;0.95;;;;;;;;;;4894725;29;20048;-66
2023/02/06 01:24:03;;;;;;;6.57;1.08;;;;;;;;;;4878772;29;20056;-67
2023/02/06 01:26:33;;;;;;;8.95;0.85;;;;;;;;;;4902681;29;20066;-66
2023/02/06 01:29:03;;;;;;;5.32;0.80;;;;;;;;;;4925684;29;20066;-66
2023/02/06 01:31:33;;;;;;;5.20;0.98;;;;;;;;;;4951694;29;20538;-67
2023/02/06 01:34:06;;;;;;;6.38;1.08;;;;;;;;;;4969317;28;20168;-66
2023/02/06 01:36:36;;;;;;;2.65;1.13;;;;;;;;;;4989846;28;20058;-66
2023/02/06 01:39:06;;;;;;;4.88;0.77;;;;;;;;;;4990422;28;20055;-66
2023/02/06 01:41:37;;;;;;;4.97;0.98;;;;;;;;;;4989886;28;20501;-66
2023/02/06 01:44:20;;;;;;;3.72;0.90;;;;;;;;;;4990005;28;20053;-66
2023/02/06 01:46:53;;;;;;;6.97;1.73;;;;;;;;;;4989163;28;20418;-67
2023/02/06 01:49:40;;;;;;;4.30;1.08;;;;;;;;;;4957692;28;20054;-66
2023/02/06 01:52:19;;;;;;;5.15;1.10;;;;;;;;;;5001652;28;20075;-66
2023/02/06 01:54:52;;;;;;;;;;;;;;;;;;5053456;28;20419;-66
2023/02/06 01:57:24;;;;;;;4.13;1.00;;;;;;;;;;5044780;28;19921;-66
2023/02/06 02:00:00;;;;;;;10.88;1.73;;;;;;;;;;5040873;28;20056;-66
2023/02/06 02:02:43;;;;;;;4.50;1.30;;;;;;;;;;5034157;28;20049;-66
2023/02/06 02:05:15;;;;;;;4.78;1.23;;;;;;;;;;5012512;28;20061;-67
2023/02/06 02:08:03;;;;;;;4.75;1.33;;;;;;;;;;5045331;28;20061;-67
2023/02/06 02:10:35;;;;;;;6.85;1.48;;;;;;;;;;5029017;28;20078;-67
2023/02/06 02:13:05;;;;;;;2.75;1.02;;;;;;;;;;5028978;28;20058;-66
2023/02/06 02:15:54;;;;;;;6.20;1.13;;;;;;;;;;5008174;28;20046;-65
2023/02/06 02:18:47;;;;;;;4.57;1.30;;;;;;;;;;4976569;28;20050;-65
2023/02/06 02:21:47;;;;;;;3.00;1.10;;;;;;;;;;4989993;28;20054;-66
2023/02/06 02:24:45;;;;;;;5.80;1.00;;;;;;;;;;4973537;28;20085;-65
2023/02/06 02:27:31;;;;;;;4.55;0.90;;;;;;;;;;4934561;29;20068;-65
2023/02/06 02:30:12;;;;;;;2.90;1.00;;;;;;;;;;4989507;28;20054;-65
2023/02/06 02:32:56;;;;;;;4.97;0.80;;;;;;;;;;4969831;28;20047;-66
2023/02/06 02:35:52;;;;;;;2.28;0.80;;;;;;;;;;4961817;28;20061;-66
2023/02/06 02:38:46;;;;;;;4.60;1.13;;;;;;;;;;4992697;28;20542;-66
2023/02/06 02:41:27;;;;;;;4.10;1.23;;;;;;;;;;4973713;28;20515;-66
2023/02/06 02:44:14;;;;;;;4.25;1.15;;;;;;;;;;4973761;28;20162;-65
2023/02/06 02:46:47;;;;;;;5.50;1.52;;;;;;;;;;4973544;28;20458;-66
2023/02/06 02:49:25;;;;;;;3.55;1.13;;;;;;;;;;4978027;28;20062;-66
2023/02/06 02:51:56;;;;;;;4.90;1.50;;;;;;;;;;4992451;28;20065;-65
2023/02/06 02:54:27;;;;;;;3.70;1.33;;;;;;;;;;4973567;28;20055;-65
2023/02/06 02:57:07;;;;;;;8.20;1.90;;;;;;;;;;4973409;28;20511;-67
2023/02/06 02:59:43;;;;;;;5.63;1.70;;;;;;;;;;4936861;28;20055;-66
2023/02/06 03:02:26;;;;;;;5.13;1.70;;;;;;;;;;4935085;29;20551;-66
2023/02/06 03:05:07;;;;;;;5.88;1.50;;;;;;;;;;4900334;29;20052;-66
2023/02/06 03:08:04;;;;;;;7.70;1.63;;;;;;;;;;4870067;29;20125;-66
2023/02/06 03:10:47;;;;;;;5.70;1.70;;;;;;;;;;4915452;29;20055;-66
2023/02/06 03:13:25;;;;;;;7.38;1.80;;;;;;;;;;4869001;29;20540;-66
2023/02/06 03:16:11;;;;;;;5.47;1.60;;;;;;;;;;4880969;29;20067;-66
2023/02/06 03:19:06;;;;;;;5.28;1.50;;;;;;;;;;4899877;29;20052;-66
2023/02/06 03:21:39;;;;;;;8.48;2.20;;;;;;;;;;4896493;29;20527;-66
2023/02/06 03:24:22;;;;;;;5.78;1.55;;;;;;;;;;4896275;29;20061;-66
2023/02/06 03:26:57;;;;;;;6.95;1.65;;;;;;;;;;4888171;29;20064;-66
2023/02/06 03:29:32;;;;;;;4.10;1.67;;;;;;;;;;4878702;29;20061;-66
2023/02/06 03:32:12;;;;;;;9.77;1.73;;;;;;;;;;4886675;29;20064;-66
2023/02/06 03:34:50;;;;;;;10.43;1.63;;;;;;;;;;4916462;29;20059;-66
2023/02/06 03:37:22;;;;;;;7.55;1.85;;;;;;;;;;4934351;29;20063;-66
2023/02/06 03:39:52;;;;;;;7.70;2.00;;;;;;;;;;4903000;29;20408;-66
2023/02/06 03:42:24;;;;;;;5.38;1.70;;;;;;;;;;4942068;29;20059;-66
2023/02/06 03:44:59;;;;;;;5.45;1.83;;;;;;;;;;4953495;29;20568;-66
2023/02/06 03:47:30;;;;;;;8.73;2.50;;;;;;;;;;4936882;28;20065;-66
2023/02/06 03:50:01;;;;;;;5.18;1.70;;;;;;;;;;4980233;28;20061;-66
2023/02/06 03:52:36;;;;;;;6.75;1.80;;;;;;;;;;4975681;28;20047;-65
2023/02/06 03:55:11;;;;;;;6.38;1.60;;;;;;;;;;4991945;28;20046;-68
2023/02/06 03:57:46;;;;;;;3.78;1.40;;;;;;;;;;4992961;28;20510;-66
2023/02/06 04:00:17;;;;;;;11.20;2.20;;;;;;;;;;5104476;28;20054;-66
2023/02/06 04:02:50;;;;;;;4.65;1.65;;;;;;;;;;5045964;28;20047;-66
2023/02/06 04:05:20;;;;;;;;;;;;;;;;;;5062453;28;20517;-66
2023/02/06 04:07:51;;;;;;;6.47;1.65;;;;;;;;;;5061707;28;19920;-66
2023/02/06 04:10:22;;;;;;;5.15;1.83;;;;;;;;;;5094563;28;20083;-66
2023/02/06 04:12:53;;;;;;;;;;;;;;;;;;5078422;28;20051;-66
2023/02/06 04:15:25;;;;;;;4.70;1.98;;;;;;;;;;5114097;28;19920;-66
2023/02/06 04:17:55;;;;;;;5.28;1.45;;;;;;;;;;5113794;28;20065;-66
2023/02/06 04:20:29;;;;;;;6.22;2.13;;;;;;;;;;5113445;28;20040;-66
2023/02/06 04:22:59;;;;;;;9.15;1.65;;;;;;;;;;5113904;28;20043;-65
2023/02/06 04:25:29;;;;;;;7.30;1.92;;;;;;;;;;5114152;28;20486;-66
2023/02/06 04:27:59;;;;;;;3.95;1.52;;;;;;;;;;5077493;28;20048;-66
2023/02/06 04:30:30;;;;;;;4.85;2.03;;;;;;;;;;5113418;28;20040;-66
2023/02/06 04:33:00;;;;;;;9.25;1.77;;;;;;;;;;5062357;28;20477;-66
2023/02/06 04:35:30;;;;;;;9.98;2.00;;;;;;;;;;5094506;28;20612;-68
2023/02/06 04:38:00;;;;;;;6.60;1.88;;;;;;;;;;5090558;28;20167;-66
2023/02/06 04:40:30;;;;;;;4.85;1.95;;;;;;;;;;5072362;28;20516;-66
2023/02/06 04:43:00;;;;;;;6.00;2.30;;;;;;;;;;5070460;28;20056;-67
2023/02/06 04:45:30;;;;;;;7.60;1.70;;;;;;;;;;5070375;28;20175;-66
2023/02/06 04:48:00;;;;;;;4.75;1.83;;;;;;;;;;5070479;28;20040;-67
2023/02/06 04:50:33;;;;;;;3.65;1.67;;;;;;;;;;5069679;28;20060;-66
2023/02/06 04:53:03;;;;;;;5.55;1.60;;;;;;;;;;5022605;28;20630;-66
2023/02/06 04:55:35;;;;;;;5.95;1.63;;;;;;;;;;5020564;28;20044;-66
2023/02/06 04:58:05;;;;;;;;;;;;;;;;;;5070664;28;20051;-67
2023/02/06 05:00:35;;;;;;;4.82;2.00;;;;;;;;;;5035281;28;19920;-66
2023/02/06 05:03:06;;;;;;;6.43;1.83;;;;;;;;;;5069933;28;20063;-66
2023/02/06 05:05:36;;;;;;;3.92;1.83;;;;;;;;;;5050044;28;20058;-66
2023/02/06 05:08:07;;;;;;;4.97;1.67;;;;;;;;;;5049739;28;20057;-66
2023/02/06 05:10:37;;;;;;;8.95;2.03;;;;;;;;;;5013173;28;20595;-66
2023/02/06 05:13:07;;;;;;;8.65;1.85;;;;;;;;;;4981251;28;20132;-65
2023/02/06 05:15:37;;;;;;;7.57;1.95;;;;;;;;;;4997032;28;20567;-68
2023/02/06 05:18:08;;;;;;;4.13;1.92;;;;;;;;;;5029774;28;20046;-66
2023/02/06 05:20:38;;;;;;;5.38;1.60;;;;;;;;;;5047462;28;20049;-67
2023/02/06 05:23:08;;;;;;;6.72;1.85;;;;;;;;;;5016678;28;20052;-67
2023/02/06 05:25:38;;;;;;;4.30;1.65;;;;;;;;;;5049192;28;20053;-66
2023/02/06 05:28:10;;;;;;;7.53;2.10;;;;;;;;;;5002095;28;20061;-66
2023/02/06 05:30:40;;;;;;;4.13;1.65;;;;;;;;;;5049459;28;20520;-66
2023/02/06 05:33:10;;;;;;;6.20;1.50;;;;;;;;;;5049604;28;20056;-67
2023/02/06 05:35:41;;;;;;;3.88;1.48;;;;;;;;;;5016715;28;20049;-67
2023/02/06 05:38:11;;;;;;;5.30;1.63;;;;;;;;;;5049637;28;20492;-66
2023/02/06 05:40:44;;;;;;;7.25;1.80;;;;;;;;;;5048840;28;20052;-67
2023/02/06 05:43:14;;;;;;;8.73;1.70;;;;;;;;;;4980277;28;20517;-67
2023/02/06 05:45:44;;;;;;;9.02;1.77;;;;;;;;;;4957853;28;20050;-66
2023/02/06 05:48:14;;;;;;;5.47;2.50;;;;;;;;;;4976677;28;20064;-67
2023/02/06 05:50:48;;;;;;;4.65;1.65;;;;;;;;;;4992390;28;20506;-66
2023/02/06 05:53:18;;;;;;;6.70;1.55;;;;;;;;;;5009616;28;20054;-67
2023/02/06 05:55:48;;;;;;;4.45;1.52;;;;;;;;;;5009495;28;20198;-67
2023/02/06 05:58:18;;;;;;;5.05;1.30;;;;;;;;;;4993669;28;20058;-67
2023/02/06 06:00:48;;;;;;;4.78;1.35;;;;;;;;;;5042821;28;20497;-66
2023/02/06 06:03:18;;;;;;;3.55;1.42;;;;;;;;;;5012049;28;20512;-66
2023/02/06 06:05:48;;;;;;;2.78;1.10;;;;;;;;;;5028913;28;20057;-67
2023/02/06 06:08:18;;;;;;;10.57;1.67;;;;;;;;;;5029100;28;20446;-67
2023/02/06 06:10:51;;;;;;;5.57;1.58;;;;;;;;;;5048383;28;20056;-66
2023/02/06 06:13:21;;;;;;;4.90;1.58;;;;;;;;;;5048934;28;20145;-67
2023/02/06 06:15:52;;;;;;;7.63;1.60;;;;;;;;;;5048805;28;20048;-67
2023/02/06 06:18:22;;;;;;;8.80;1.90;;;;;;;;;;5015609;28;20057;-66
2023/02/06 06:20:53;;;;;;;7.82;1.88;;;;;;;;;;5060859;28;20063;-66
2023/02/06 06:23:23;;;;;;;4.50;1.60;;;;;;;;;;5091651;28;20040;-67
2023/02/06 06:25:53;;;;;;;3.47;1.35;;;;;;;;;;5055081;28;20118;-67
2023/02/06 06:28:23;;;;;;;5.10;1.60;;;;;;;;;;5020015;28;20041;-66
2023/02/06 06:31:04;;;;;;;4.05;1.55;;;;;;;;;;5055952;28;20052;-67
2023/02/06 06:33:34;;;;;;;6.75;1.60;;;;;;;;;;5089098;28;20052;-67
2023/02/06 06:36:06;;;;;;;4.30;1.65;;;;;;;;;;5088920;28;20399;-68
2023/02/06 06:38:36;;;;;;;3.40;1.50;;;;;;;;;;5084787;28;20393;-66
2023/02/06 06:41:06;;;;;;;5.75;1.50;;;;;;;;;;5068607;28;20083;-65
2023/02/06 06:43:36;;;;;;;4.30;1.50;;;;;;;;;;5068855;28;20217;-66
2023/02/06 06:46:06;;;;;;;3.13;1.33;;;;;;;;;;5051403;28;20489;-67
2023/02/06 06:48:37;;;;;;;4.32;1.23;;;;;;;;;;5071724;28;20142;-66
2023/02/06 06:51:07;;;;;;;6.70;1.50;;;;;;;;;;5068323;28;20049;-66
2023/02/06 06:53:38;;;;;;;3.63;1.40;;;;;;;;;;5028405;28;20049;-66
2023/02/06 06:56:12;;;;;;;4.75;1.92;;;;;;;;;;5028504;28;20056;-66
2023/02/06 06:58:42;;;;;;;4.70;1.30;;;;;;;;;;5005515;28;20494;-66
2023/02/06 07:01:13;;;;;;;10.73;1.73;;;;;;;;;;5008586;28;20050;-66
2023/02/06 07:03:45;;;;;;;7.45;1.45;;;;;;;;;;5008717;28;20057;-67
2023/02/06 07:06:16;;;;;;;5.03;1.65;;;;;;;;;;5020519;28;20058;-67
2023/02/06 07:08:46;;;;;;;4.72;1.42;;;;;;;;;;4988830;28;20046;-66
2023/02/06 07:11:17;;;;;;;5.80;1.40;;;;;;;;;;4988927;28;20058;-67
2023/02/06 07:13:48;;;;;;;6.13;1.55;;;;;;;;;;4989063;28;20070;-66
2023/02/06 07:16:19;;;;;;;5.78;1.88;;;;;;;;;;4972706;28;20553;-66
2023/02/06 07:18:49;;;;;;;6.68;1.70;;;;;;;;;;4957455;28;20062;-66
2023/02/06 07:21:19;;;;;;;2.67;1.08;;;;;;;;;;4988705;28;20506;-67
2023/02/06 07:23:49;;;;;;;6.57;1.35;;;;;;;;;;4995056;28;20169;-67
2023/02/06 07:26:19;;;;;;;4.20;1.50;;;;;;;;;;5031859;28;20062;-66
2023/02/06 07:28:51;;;;;;;5.65;1.70;;;;;;;;;;5051553;28;20053;-66
2023/02/06 07:31:22;;;;;;;3.65;1.17;;;;;;;;;;5038418;28;20083;-67
2023/02/06 07:33:52;;;;;;;5.75;1.45;;;;;;;;;;5072103;28;20057;-67
2023/02/06 07:36:22;;;;;;;6.68;1.55;;;;;;;;;;5051592;28;20052;-68
2023/02/06 07:38:52;;;;;;;3.45;1.20;;;;;;;;;;5053783;28;20060;-67
2023/02/06 07:41:22;;;;;;;2.75;1.20;;;;;;;;;;5075031;28;20048;-67
2023/02/06 07:43:53;;;;;;;5.47;1.20;;;;;;;;;;5091904;28;20058;-68
2023/02/06 07:46:25;;;;;;;4.50;1.10;;;;;;;;;;5057716;28;20515;-67
2023/02/06 07:48:55;;;;;;;3.33;1.63;;;;;;;;;;5070784;28;20052;-68
2023/02/06 07:51:25;;;;;;;7.45;1.00;;;;;;;;;;5071723;28;20047;-68
2023/02/06 07:53:55;;;;;;;5.63;1.75;;;;;;;;;;5054919;28;20420;-67
2023/02/06 07:56:25;;;;;;;4.88;1.00;;;;;;;;;;5071522;28;20048;-67
2023/02/06 07:58:55;;;;;;;7.35;1.10;;;;;;;;;;5085900;28;20082;-67
2023/02/06 08:01:25;;;;;;;6.05;1.05;;;;;;;;;;5091338;28;20052;-68
2023/02/06 08:03:56;;;;;;;4.18;0.90;;;;;;;;;;5074857;28;20048;-67
2023/02/06 08:06:26;;;;;;;3.25;1.10;;;;;;;;;;5041014;28;20044;-66
2023/02/06 08:08:56;;;;;;;3.10;1.40;;;;;;;;;;5091161;28;20051;-67
2023/02/06 08:11:29;;;;;;;5.50;1.17;;;;;;;;;;5041463;28;20044;-66
2023/02/06 08:13:59;;;;;;;;;;;;;;;;;;5102647;28;20051;-67
2023/02/06 08:16:30;;;;;;;3.75;1.00;;;;;;;;;;5094819;28;19927;-67
2023/02/06 08:19:01;;;;;;;3.60;1.25;;;;;;;;;;5113607;28;20490;-66
2023/02/06 08:21:32;;;;;;;5.15;1.08;;;;;;;;;;5111805;28;20055;-66
2023/02/06 08:24:03;;;;;;;4.43;1.00;;;;;;;;;;5111675;28;20055;-66
2023/02/06 08:26:33;;;;;;;2.50;1.05;;;;;;;;;;5113954;28;20081;-66
2023/02/06 08:29:04;;;;;;;5.55;1.02;;;;;;;;;;5113278;28;20058;-66
2023/02/06 08:31:37;;;;;;;3.60;1.00;;;;;;;;;;5113909;28;20054;-66
2023/02/06 08:34:10;;;;;;;6.70;1.25;;;;;;;;;;5113471;28;20047;-66
2023/02/06 08:36:41;;;;;;;4.32;1.38;;;;;;;;;;5113797;28;20051;-67
2023/02/06 08:39:13;;;;;;;2.97;1.13;;;;;;;;;;5112860;28;20043;-66
2023/02/06 08:41:43;;;;;;;2.88;1.13;;;;;;;;;;5093279;28;20495;-66
2023/02/06 08:44:15;;;;;;;4.90;1.40;;;;;;;;;;5093209;28;20048;-66
2023/02/06 08:46:47;;;;;;;3.47;1.00;;;;;;;;;;5093155;28;20051;-66
2023/02/06 08:49:29;;;;;;;3.97;1.13;;;;;;;;;;5028330;28;20044;-66
2023/02/06 08:52:00;;;;;;;4.75;1.02;;;;;;;;;;5093020;28;20040;-67
2023/02/06 08:54:30;;;;;;;2.80;0.95;;;;;;;;;;5090704;28;20052;-66
2023/02/06 08:57:05;;;;;;;1.95;1.00;;;;;;;;;;5093269;28;20036;-67
2023/02/06 08:59:35;;;;;;;3.83;1.60;;;;;;;;;;5059126;28;20040;-67
2023/02/06 09:02:06;;;;;;;8.40;1.48;;;;;;;;;;5074286;28;20071;-67
2023/02/06 09:04:36;;;;;;;4.47;1.33;;;;;;;;;;5092659;28;20055;-65
2023/02/06 09:07:06;;;;;;;4.85;1.33;;;;;;;;;;5094191;28;20538;-66
2023/02/06 09:09:37;;;;;;;6.65;1.20;;;;;;;;;;5076632;28;20078;-66
2023/02/06 09:12:09;;;;;;;3.15;1.10;;;;;;;;;;5077241;28;20051;-65
2023/02/06 09:14:41;;;;;;;5.07;1.05;;;;;;;;;;5112757;28;20048;-65
2023/02/06 09:17:11;;;;;;;7.78;1.27;;;;;;;;;;5036050;28;20045;-65
2023/02/06 09:19:41;;;;;;;3.40;1.30;;;;;;;;;;5036376;28;20052;-65
2023/02/06 09:22:13;;;;;;;;;;;;;;;;;;5070022;28;20523;-65
2023/02/06 09:24:42;;;;;;;4.53;1.17;;;;;;;;;;5036257;28;19928;-65
2023/02/06 09:27:14;;;;;;;3.20;1.00;;;;;;;;;;5072155;28;20150;-65
2023/02/06 09:29:45;;;;;;;3.17;1.17;;;;;;;;;;5039667;28;20052;-65
2023/02/06 09:32:15;;;;;;;6.60;1.33;;;;;;;;;;5056123;28;20059;-66
2023/02/06 09:34:48;;;;;;;5.90;1.20;;;;;;;;;;5072844;28;20068;-66
2023/02/06 09:37:18;;;;;;;11.93;1.40;;;;;;;;;;5035773;28;20115;-66
2023/02/06 09:39:48;;;;;;;4.45;1.20;;;;;;;;;;5069239;28;20044;-66
2023/02/06 09:42:33;;;;;;;5.10;1.10;;;;;;;;;;5029181;28;20065;-66
2023/02/06 09:45:26;;;;;;;5.30;1.20;;;;;;;;;;5029379;28;20057;-66
2023/02/06 09:48:04;;;;;;;7.20;1.73;;;;;;;;;;5033321;28;20501;-65
2023/02/06 09:51:00;;;;;;;5.20;1.55;;;;;;;;;;5049090;28;20045;-66
2023/02/06 09:53:54;;;;;;;10.80;1.42;;;;;;;;;;5049122;28;20064;-65
2023/02/06 09:56:44;;;;;;;4.25;1.20;;;;;;;;;;5032421;28;20049;-66
2023/02/06 09:59:28;;;;;;;7.82;1.58;;;;;;;;;;4971556;28;20065;-66
2023/02/06 10:02:39;;;;;;;6.25;1.60;;;;;;;;;;4989184;28;20510;-65
2023/02/06 10:05:25;;;;;;;5.90;1.98;;;;;;;;;;4989762;28;20053;-65
2023/02/06 10:07:56;;;;;;;7.40;2.00;;;;;;;;;;4989007;28;20054;-66
2023/02/06 10:10:49;;;;;;;9.25;1.92;;;;;;;;;;4989673;28;20069;-65
2023/02/06 10:13:19;;;;;;;7.43;1.60;;;;;;;;;;4957540;28;20050;-65
2023/02/06 10:15:54;;;;;;;7.75;2.00;;;;;;;;;;4941374;28;20061;-66
2023/02/06 10:18:36;;;;;;;12.27;2.80;;;;;;;;;;4941096;28;20062;-66
2023/02/06 10:21:24;;;;;;;7.00;2.30;;;;;;;;;;5008893;28;20061;-65
2023/02/06 10:24:04;;;;;;;7.28;2.83;;;;;;;;;;5009338;28;20062;-65
2023/02/06 10:26:38;;;;;;;7.13;3.30;;;;;;;;;;5009108;28;20062;-65
2023/02/06 10:29:18;;;;;;;10.60;2.92;;;;;;;;;;5008482;28;20053;-65
2023/02/06 10:32:17;;;;;;;8.75;3.13;;;;;;;;;;5008594;28;20421;-65
2023/02/06 10:35:13;;;;;;;6.93;2.80;;;;;;;;;;5009323;28;20490;-65
2023/02/06 10:38:15;;;;;;;8.20;2.55;;;;;;;;;;5088758;28;20051;-65
2023/02/06 10:41:29;;;;;;;6.43;2.35;;;;;;;;;;5088698;28;20055;-65
2023/02/06 10:44:18;;;;;;;6.82;2.42;;;;;;;;;;5044008;28;20052;-65
2023/02/06 10:46:50;;;;;;;10.35;2.40;;;;;;;;;;4999151;28;20583;-65
2023/02/06 10:49:45;;;;;;;6.32;2.42;;;;;;;;;;5048873;28;20041;-66
2023/02/06 10:52:36;;;;;;;7.00;2.08;;;;;;;;;;5032494;28;20583;-65
2023/02/06 10:55:26;;;;;;;6.28;2.03;;;;;;;;;;4988392;28;20069;-65
2023/02/06 10:58:19;;;;;;;5.70;2.92;;;;;;;;;;5009399;28;20053;-65
2023/02/06 11:00:51;;;;;;;6.00;2.65;;;;;;;;;;5012709;28;20054;-65
2023/02/06 11:03:26;;;;;;;5.80;2.90;;;;;;;;;;4979936;28;20591;-65
2023/02/06 11:05:57;;;;;;;8.32;2.80;;;;;;;;;;5011288;28;20064;-65
2023/02/06 11:08:36;;;;;;;6.00;2.67;;;;;;;;;;5051719;28;20049;-65
2023/02/06 11:11:22;;;;;;;6.88;2.30;;;;;;;;;;5036030;28;20536;-65
2023/02/06 11:14:19;;;;;;;7.60;2.35;;;;;;;;;;5031679;28;20056;-65
2023/02/06 11:16:51;;;;;;;7.88;2.53;;;;;;;;;;5051002;28;20057;-65
2023/02/06 11:19:37;;;;;;;7.03;2.65;;;;;;;;;;5071987;28;20056;-65
2023/02/06 11:22:09;;;;;;;7.22;2.45;;;;;;;;;;5109867;28;20062;-65
2023/02/06 11:25:00;;;;;;;10.35;2.75;;;;;;;;;;5103471;28;20591;-65
2023/02/06 11:27:32;;;;;;;6.57;2.17;;;;;;;;;;5091896;28;20048;-65
2023/02/06 11:30:08;;;;;;;8.52;2.00;;;;;;;;;;5093160;28;20052;-65
2023/02/06 11:32:42;;;;;;;10.95;1.98;;;;;;;;;;5058302;28;20052;-66
2023/02/06 11:35:48;;;;;;;7.72;1.75;;;;;;;;;;5019856;28;20065;-65
2023/02/06 11:38:29;;;;;;;6.13;2.00;;;;;;;;;;4980714;28;20425;-66
2023/02/06 11:41:03;;;;;;;3.92;1.45;;;;;;;;;;4963332;28;20123;-65
2023/02/06 11:43:42;;;;;;;4.75;1.60;;;;;;;;;;4988892;28;20209;-65
2023/02/06 11:46:23;;;;;;;3.67;1.05;;;;;;;;;;4972745;28;20067;-66
2023/02/06 11:48:57;;;;;;;3.78;1.17;;;;;;;;;;4980872;28;20545;-66
2023/02/06 11:51:48;;;;;;;3.38;1.52;;;;;;;;;;5001581;28;20054;-66
2023/02/06 11:54:21;;;;;;;5.13;1.33;;;;;;;;;;4978523;28;20045;-66
2023/02/06 11:57:01;;;;;;;3.92;1.35;;;;;;;;;;4994236;28;20066;-66
2023/02/06 11:59:33;;;;;;;7.65;2.10;;;;;;;;;;4959505;28;20048;-66
2023/02/06 12:02:33;;;;;;;5.53;1.88;;;;;;;;;;4992053;28;20058;-66
2023/02/06 12:05:09;;;;;;;5.13;1.45;;;;;;;;;;4975408;28;20530;-65
2023/02/06 12:08:15;;;;;;;4.75;1.70;;;;;;;;;;4991525;28;20069;-66
2023/02/06 12:10:58;;;;;;;7.47;1.90;;;;;;;;;;4991887;28;20157;-65
2023/02/06 12:13:36;;;;;;;4.47;1.77;;;;;;;;;;5022953;28;20498;-65
2023/02/06 12:16:07;;;;;;;7.43;1.90;;;;;;;;;;4998102;28;20520;-65
2023/02/06 12:18:40;;;;;;;3.60;1.45;;;;;;;;;;5031003;28;20437;-65
2023/02/06 12:21:20;;;;;;;4.63;1.67;;;;;;;;;;5035852;28;20055;-65
2023/02/06 12:23:55;;;;;;;7.55;2.22;;;;;;;;;;5057345;28;20582;-65
2023/02/06 12:26:29;;;;;;;5.05;1.60;;;;;;;;;;5088391;28;20059;-64
2023/02/06 12:29:23;;;;;;;8.32;2.58;;;;;;;;;;5100784;28;20051;-65
2023/02/06 12:32:13;;;;;;;3.53;1.83;;;;;;;;;;5097522;28;20054;-65
2023/02/06 12:34:59;;;;;;;5.75;2.28;;;;;;;;;;5113401;28;20054;-65
2023/02/06 12:37:50;;;;;;;5.03;1.70;;;;;;;;;;5013176;28;20047;-65
2023/02/06 12:40:53;;;;;;;2.90;1.48;;;;;;;;;;5113216;28;20051;-65
2023/02/06 12:43:24;;;;;;;5.45;1.40;;;;;;;;;;5093832;28;20052;-65
2023/02/06 12:45:54;;;;;;;4.28;1.20;;;;;;;;;;5044436;28;20047;-66
2023/02/06 12:48:30;;;;;;;3.33;1.42;;;;;;;;;;5077232;28;20062;-65
2023/02/06 12:51:08;;;;;;;5.63;1.40;;;;;;;;;;5074458;28;20060;-65
2023/02/06 12:53:37;;;;;;;7.45;1.50;;;;;;;;;;5112942;28;20050;-65
2023/02/06 12:56:48;;;;;;;3.92;1.70;;;;;;;;;;5095224;28;20047;-65
2023/02/06 12:59:49;;;;;;;8.20;2.25;;;;;;;;;;5112280;28;20114;-65
2023/02/06 13:02:55;;;;;;;8.40;1.40;;;;;;;;;;5093011;28;20051;-65
2023/02/06 13:05:37;;;;;;;4.68;1.77;;;;;;;;;;4977844;28;20054;-66
2023/02/06 13:08:13;;;;;;;12.45;5.55;;;;;;;;;;5009919;28;20061;-66
2023/02/06 13:10:43;;;;;;;6.30;1.90;;;;;;;;;;4984407;28;20042;-65
2023/02/06 13:13:30;;;;;;;6.00;1.35;;;;;;;;;;4973931;28;20062;-65
2023/02/06 13:16:00;;;;;;;5.60;2.22;;;;;;;;;;4990071;28;20061;-65
2023/02/06 13:18:35;;;;;;;3.50;1.25;;;;;;;;;;4990076;28;20058;-66
2023/02/06 13:21:31;;;;;;;4.60;1.38;;;;;;;;;;4997950;28;20676;-66
2023/02/06 13:24:01;;;;;;;3.53;1.30;;;;;;;;;;5007133;28;20054;-65
2023/02/06 13:26:47;;;;;;;5.47;1.27;;;;;;;;;;4957837;28;20054;-66
2023/02/06 13:29:24;;;;;;;5.40;1.10;;;;;;;;;;4990327;28;20065;-66
2023/02/06 13:32:16;;;;;;;4.65;1.20;;;;;;;;;;4989889;28;20054;-64
2023/02/06 13:34:52;;;;;;;4.88;1.80;;;;;;;;;;4996131;28;20061;-66
2023/02/06 13:37:46;;;;;;;3.10;1.48;;;;;;;;;;5009560;28;20083;-64
2023/02/06 13:40:29;;;;;;;7.75;1.75;;;;;;;;;;5009167;28;20060;-66
2023/02/06 13:43:13;;;;;;;6.60;1.30;;;;;;;;;;5087460;28;20056;-64
2023/02/06 13:45:51;;;;;;;7.20;1.60;;;;;;;;;;5084477;28;20380;-66
2023/02/06 13:48:40;;;;;;;5.68;1.42;;;;;;;;;;5111874;28;20027;-64
2023/02/06 13:51:21;;;;;;;3.10;1.10;;;;;;;;;;5091595;28;20050;-64
2023/02/06 13:54:03;;;;;;;6.00;1.00;;;;;;;;;;5106386;28;20051;-64
2023/02/06 13:56:41;;;;;;;3.75;1.15;;;;;;;;;;5107970;28;20042;-64
2023/02/06 13:59:35;;;;;;;3.45;1.17;;;;;;;;;;5073745;28;20044;-65
2023/02/06 14:02:26;;;;;;;4.78;0.93;;;;;;;;;;5091014;28;20070;-65
2023/02/06 14:05:01;;;;;;;3.30;1.10;;;;;;;;;;5075858;28;20055;-64
2023/02/06 14:07:53;;;;;;;3.28;1.10;;;;;;;;;;5068710;28;20055;-65
2023/02/06 14:13:54;;;;;;;3.80;1.17;;;;;;;;;;5106918;28;20040;-64
2023/02/06 14:16:43;;;;;;;5.30;1.30;;;;;;;;;;5091383;28;20048;-65
2023/02/06 14:19:42;;;;;;;2.80;0.82;;;;;;;;;;5055271;28;20044;-64
2023/02/06 14:22:23;;;;;;;4.35;0.90;;;;;;;;;;5109009;28;20499;-64
2023/02/06 14:25:16;;;;;;;3.00;1.10;;;;;;;;;;5085948;28;20060;-64
2023/02/06 14:28:04;;;;;;;2.40;1.00;;;;;;;;;;5058496;28;20048;-64
2023/02/06 14:31:15;;;;;;;2.75;1.00;;;;;;;;;;5111143;28;20047;-64
2023/02/06 14:34:07;;;;;;;8.57;2.10;;;;;;;;;;5118420;28;20491;-64
2023/02/06 14:36:49;;;;;;;52.38;8.38;;;;;;;;;;5080374;28;20055;-64
2023/02/06 14:39:50;;;;;;;9.77;1.95;;;;;;;;;;5116013;28;20047;-65
2023/02/06 14:42:26;;;;;;;8.98;1.90;;;;;;;;;;5025916;28;20053;-64
2023/02/06 14:45:24;;;;;;;3.97;1.25;;;;;;;;;;5055448;28;20037;-65
2023/02/06 14:47:56;;;;;;;2.38;0.95;;;;;;;;;;5043581;28;20052;-64
2023/02/06 14:50:34;;;;;;;4.75;1.17;;;;;;;;;;5054806;28;20041;-65
2023/02/06 14:53:21;;;;;;;3.05;1.00;;;;;;;;;;5019610;28;20060;-66
2023/02/06 14:55:52;;;;;;;3.75;1.23;;;;;;;;;;5010346;28;20830;-63
2023/02/06 14:58:27;;;;;;;5.32;1.55;;;;;;;;;;5024668;28;20049;-65
2023/02/06 15:01:19;;;;;;;3.55;1.50;;;;;;;;;;5074739;28;20056;-64
2023/02/06 15:03:51;;;;;;;2.97;1.30;;;;;;;;;;5074811;28;20564;-65
2023/02/06 15:06:42;;;;;;;3.17;1.45;;;;;;;;;;5066902;28;20047;-64
2023/02/06 15:09:36;;;;;;;2.78;1.20;;;;;;;;;;5037668;28;20057;-65
2023/02/06 15:12:23;;;;;;;2.92;1.48;;;;;;;;;;5053932;28;20057;-65
2023/02/06 15:15:01;;;;;;;4.03;1.38;;;;;;;;;;5080996;28;20503;-65
2023/02/06 15:17:33;;;;;;;3.50;1.33;;;;;;;;;;5067994;28;20058;-65
2023/02/06 15:20:29;;;;;;;2.90;1.33;;;;;;;;;;5017717;28;20409;-65
2023/02/06 15:23:05;;;;;;;2.72;1.23;;;;;;;;;;5034268;28;20053;-64
2023/02/06 15:26:14;;;;;;;3.28;1.38;;;;;;;;;;5029993;28;20061;-64
2023/02/06 15:28:44;;;;;;;4.57;1.40;;;;;;;;;;4958663;28;20047;-64
2023/02/06 15:31:19;;;;;;;5.43;1.35;;;;;;;;;;4958106;28;20046;-64
2023/02/06 15:33:56;;;;;;;5.18;2.35;;;;;;;;;;4934843;28;20117;-65
2023/02/06 15:36:38;;;;;;;3.97;1.70;;;;;;;;;;4965554;28;20047;-64
2023/02/06 15:39:12;;;;;;;3.53;1.20;;;;;;;;;;4958060;28;20058;-64
2023/02/06 15:41:47;;;;;;;2.97;1.20;;;;;;;;;;4966580;28;20458;-66
2023/02/06 15:44:23;;;;;;;3.13;1.33;;;;;;;;;;4933268;28;20055;-66
2023/02/06 15:46:55;;;;;;;3.20;1.27;;;;;;;;;;4942429;29;20164;-64